Startpagina
METAR-TAF:

METAR-TAF

Vliegvelden :

Hagåtña, Guam, Verenigde Staten

breedte: 13-29N, lengte: 144-48E, hoogte: 91 m

Actueel weer

Dit bericht is 35 minuten geleden gemaakt, om 21:13 UTC
Wind 10 kt uit het noordnoordoosten
Temperatuur 26°C
Vochtigheid 79%
Druk 1015 hPa
Zicht: 16.1 km
Verspreide wolken op 2400 ft
Verspreide wolken op 3200 ft
Gebroken wolken op 5000 ft

METAR: PGUM 202113Z 03010KT 10SM SCT024 SCT032 BKN050 26/22 A2996 RMK AO2 T02560217

Tijdstip: 07:48 (21:48 UTC)

Verwachting

Dit bericht is 4 uur en het 24 minuten geleden gemaakt, om 17:24 UTC
Verwachting geldig van 20 om 18 UTC tot 21 om 24 UTC
Wind 12 kt uit het noordoosten
Zicht: 10 km
Weinig wolken op 2100 ft
Verspreide wolken op 6000 ft
buien in de omgeving
Van 20 om 2200 UTC
Wind 15 kt uit het noordoosten met uitschieters tot 25 kt
Zicht: 10 km
Verspreide wolken op 2200 ft
Verspreide wolken op 5000 ft
buien in de omgeving

TAF: PGUM 201724Z 2018/2124 04012KT P6SM VCSH FEW021 SCT060 FM202200 05015G25KT P6SM VCSH SCT022 SCT050

Waarnemingen en weersverwachtingen van meer dan 4000 vliegvelden (METAR en TAF).

De beschikbare stations zijn de gele en rode punten op de kaart.

Ga met uw muis naar het station om de naam te zien.

Klik dan om waarnemingen en weersverwachtingen te zien.

kaart wijzigen: klik op de groene knoppen met een zwart kruis om in te zoomen, op de groene knop met een streepje om uit te zoomen of op de groene pijlen voor aangrenzende kaarten.


METAR-TAF: